createdAt,value
2023-02-18T00:00:58.935Z,100.00
2023-02-18T00:03:27.458Z,100.00
2023-02-18T00:05:54.261Z,100.00
2023-02-18T00:08:22.070Z,100.00
2023-02-18T00:10:49.599Z,100.00
2023-02-18T00:13:16.305Z,100.00
2023-02-18T00:15:43.047Z,100.00
2023-02-18T00:18:09.778Z,100.00
2023-02-18T00:20:39.335Z,100.00
2023-02-18T00:23:06.038Z,100.00
2023-02-18T00:25:32.769Z,100.00
2023-02-18T00:27:59.443Z,100.00
2023-02-18T00:30:26.239Z,100.00
2023-02-18T00:32:52.968Z,100.00
2023-02-18T00:35:19.881Z,100.00
2023-02-18T00:37:46.573Z,100.00
2023-02-18T00:40:13.430Z,100.00
2023-02-18T00:42:40.126Z,100.00
2023-02-18T00:45:07.333Z,100.00
2023-02-18T00:47:34.040Z,100.00
2023-02-18T00:50:00.776Z,100.00
2023-02-18T00:52:27.460Z,100.00
2023-02-18T00:54:54.164Z,100.00
2023-02-18T00:57:20.835Z,100.00
2023-02-18T00:59:47.564Z,100.00
2023-02-18T01:02:14.243Z,100.00
2023-02-18T01:04:41.057Z,100.00
2023-02-18T01:07:10.421Z,100.00
2023-02-18T01:09:37.156Z,100.00
2023-02-18T01:12:03.933Z,100.00
2023-02-18T01:14:30.597Z,100.00
2023-02-18T01:16:57.328Z,100.00
2023-02-18T01:19:24.027Z,100.00
2023-02-18T01:21:50.760Z,100.00
2023-02-18T01:24:17.458Z,100.00
2023-02-18T01:26:44.167Z,100.00
2023-02-18T01:29:10.872Z,100.00
2023-02-18T01:31:37.721Z,100.00
2023-02-18T01:34:04.598Z,100.00
2023-02-18T01:36:31.352Z,100.00
2023-02-18T01:38:58.136Z,100.00
2023-02-18T01:41:25.193Z,100.00
2023-02-18T01:44:21.536Z,100.00
2023-02-18T01:46:49.342Z,100.00
2023-02-18T01:49:19.259Z,100.00
2023-02-18T01:51:51.609Z,100.00
2023-02-18T01:54:34.554Z,100.00
2023-02-18T01:57:11.112Z,100.00
2023-02-18T01:59:50.392Z,100.00
2023-02-18T02:02:22.052Z,100.00
2023-02-18T02:04:49.589Z,100.00
2023-02-18T02:07:18.403Z,100.00
2023-02-18T02:09:45.473Z,100.00
2023-02-18T02:12:21.442Z,100.00
2023-02-18T02:15:03.155Z,100.00
2023-02-18T02:17:54.431Z,100.00
2023-02-18T02:20:39.677Z,100.00
2023-02-18T02:23:32.237Z,100.00
2023-02-18T02:26:29.961Z,100.00
2023-02-18T02:29:15.166Z,100.00
2023-02-18T02:32:07.952Z,100.00
2023-02-18T02:34:52.675Z,100.00
2023-02-18T02:37:45.115Z,100.00
2023-02-18T02:40:33.459Z,100.00
2023-02-18T02:43:12.311Z,100.00
2023-02-18T02:45:45.191Z,100.00
2023-02-18T02:48:11.841Z,100.00
2023-02-18T02:51:11.634Z,100.00
2023-02-18T02:53:41.885Z,100.00
2023-02-18T02:56:20.437Z,100.00
2023-02-18T02:59:01.969Z,100.00
2023-02-18T03:01:57.919Z,100.00
2023-02-18T03:04:59.238Z,100.00
2023-02-18T03:07:34.830Z,100.00
2023-02-18T03:10:22.834Z,100.00
2023-02-18T03:13:00.870Z,100.00
2023-02-18T03:15:48.068Z,100.00
2023-02-18T03:18:41.878Z,100.00
2023-02-18T03:21:13.290Z,100.00
2023-02-18T03:24:09.408Z,100.00
2023-02-18T03:26:40.398Z,100.00
2023-02-18T03:29:09.052Z,100.00
2023-02-18T03:31:37.355Z,100.00
2023-02-18T03:34:12.678Z,100.00
2023-02-18T03:36:41.119Z,100.00
2023-02-18T03:39:10.969Z,100.00
2023-02-18T03:41:37.902Z,100.00
2023-02-18T03:44:06.963Z,100.00
2023-02-18T03:46:34.711Z,100.00
2023-02-18T03:49:01.589Z,100.00
2023-02-18T03:51:28.379Z,100.00
2023-02-18T03:53:55.157Z,100.00
2023-02-18T03:56:21.914Z,100.00
2023-02-18T03:58:48.685Z,100.00
2023-02-18T04:01:15.658Z,100.00
2023-02-18T04:03:42.425Z,100.00
2023-02-18T04:06:09.629Z,100.00
2023-02-18T04:08:37.072Z,100.00
2023-02-18T04:11:05.214Z,100.00
2023-02-18T04:13:32.015Z,100.00
2023-02-18T04:15:58.810Z,100.00
2023-02-18T04:18:25.589Z,100.00
2023-02-18T04:20:52.346Z,100.00
2023-02-18T04:23:19.121Z,100.00
2023-02-18T04:25:45.871Z,100.00
2023-02-18T04:28:15.450Z,100.00
2023-02-18T04:30:42.939Z,100.00
2023-02-18T04:33:09.952Z,100.00
2023-02-18T04:35:37.140Z,100.00
2023-02-18T04:38:04.313Z,100.00
2023-02-18T04:40:31.039Z,100.00
2023-02-18T04:42:58.922Z,100.00
2023-02-18T04:45:26.909Z,100.00
2023-02-18T04:47:54.381Z,100.00
2023-02-18T04:50:21.819Z,100.00
2023-02-18T04:52:48.561Z,100.00
2023-02-18T04:55:15.331Z,100.00
2023-02-18T04:57:42.161Z,100.00
2023-02-18T05:00:11.416Z,100.00
2023-02-18T05:02:38.131Z,100.00
2023-02-18T05:05:04.926Z,100.00
2023-02-18T05:07:31.650Z,100.00
2023-02-18T05:09:58.309Z,100.00
2023-02-18T05:12:25.047Z,100.00
2023-02-18T05:14:51.730Z,100.00
2023-02-18T05:17:18.524Z,100.00
2023-02-18T05:19:45.280Z,100.00
2023-02-18T05:22:11.901Z,100.00
2023-02-18T05:24:38.464Z,100.00
2023-02-18T05:27:05.102Z,100.00
2023-02-18T05:29:31.747Z,100.00
2023-02-18T05:31:58.366Z,100.00
2023-02-18T05:34:24.967Z,100.00
2023-02-18T05:36:51.795Z,100.00
2023-02-18T05:39:18.421Z,100.00
2023-02-18T05:41:44.985Z,100.00
2023-02-18T05:44:30.043Z,100.00
2023-02-18T05:46:59.862Z,100.00
2023-02-18T05:49:26.794Z,100.00
2023-02-18T05:51:53.446Z,100.00
2023-02-18T05:54:20.260Z,100.00
2023-02-18T05:56:47.006Z,100.00
2023-02-18T05:59:13.892Z,100.00
2023-02-18T06:01:40.856Z,100.00
2023-02-18T06:04:07.744Z,100.00
2023-02-18T06:06:34.864Z,100.00
2023-02-18T06:09:01.720Z,100.00
2023-02-18T06:11:28.330Z,100.00
2023-02-18T06:13:54.969Z,100.00
2023-02-18T06:16:21.731Z,100.00
2023-02-18T06:18:48.346Z,100.00
2023-02-18T06:21:15.076Z,100.00
2023-02-18T06:23:41.779Z,100.00
2023-02-18T06:26:08.742Z,100.00
2023-02-18T06:28:35.759Z,100.00
2023-02-18T06:31:02.753Z,100.00
2023-02-18T06:33:29.771Z,100.00
2023-02-18T06:36:02.814Z,100.00
2023-02-18T06:38:29.443Z,100.00
2023-02-18T06:40:56.177Z,100.00
2023-02-18T06:43:22.853Z,100.00
2023-02-18T06:45:49.525Z,100.00
2023-02-18T06:48:17.054Z,100.00
2023-02-18T06:50:44.490Z,100.00
2023-02-18T06:53:11.795Z,100.00
2023-02-18T06:55:39.027Z,100.00
2023-02-18T06:58:05.651Z,100.00
2023-02-18T07:00:32.367Z,100.00
2023-02-18T07:02:59.129Z,100.00
2023-02-18T07:05:26.038Z,100.00
2023-02-18T07:07:52.639Z,100.00
2023-02-18T07:10:19.454Z,100.00
2023-02-18T07:12:46.098Z,100.00
2023-02-18T07:15:13.097Z,100.00
2023-02-18T07:17:39.713Z,100.00
2023-02-18T07:20:07.128Z,100.00
2023-02-18T07:22:33.763Z,100.00
2023-02-18T07:25:00.446Z,100.00
2023-02-18T07:27:27.183Z,100.00
2023-02-18T07:29:54.018Z,100.00
2023-02-18T07:32:20.692Z,100.00
2023-02-18T07:34:47.310Z,100.00
2023-02-18T07:37:14.197Z,100.00
2023-02-18T07:39:43.915Z,100.00
2023-02-18T07:42:14.381Z,100.00
2023-02-18T07:44:41.807Z,100.00
2023-02-18T07:47:11.191Z,100.00
2023-02-18T07:49:37.875Z,100.00
2023-02-18T07:52:05.606Z,100.00
2023-02-18T07:54:32.696Z,100.00
2023-02-18T07:56:59.389Z,100.00
2023-02-18T07:59:26.014Z,100.00
2023-02-18T08:01:52.842Z,100.00
2023-02-18T08:04:19.577Z,100.00
2023-02-18T08:06:47.973Z,100.00
2023-02-18T08:09:14.801Z,100.00
2023-02-18T08:11:43.076Z,100.00
2023-02-18T08:14:09.916Z,100.00
2023-02-18T08:16:36.762Z,100.00
2023-02-18T08:19:04.212Z,100.00
2023-02-18T08:21:31.392Z,100.00
2023-02-18T08:23:59.304Z,100.00
2023-02-18T08:26:26.487Z,100.00
2023-02-18T08:28:53.474Z,100.00
2023-02-18T08:31:25.668Z,100.00
2023-02-18T08:33:54.528Z,100.00
2023-02-18T08:36:22.263Z,100.00
2023-02-18T08:38:49.388Z,100.00
2023-02-18T08:41:16.629Z,100.00
2023-02-18T08:43:43.591Z,100.00
2023-02-18T08:46:15.769Z,100.00
2023-02-18T08:48:43.708Z,100.00
2023-02-18T08:51:22.487Z,100.00
2023-02-18T08:53:50.018Z,100.00
2023-02-18T08:56:17.801Z,100.00
2023-02-18T08:58:44.855Z,100.00
2023-02-18T09:01:13.572Z,100.00
2023-02-18T09:03:40.740Z,100.00
2023-02-18T09:06:07.896Z,100.00
2023-02-18T09:08:34.942Z,100.00
2023-02-18T09:11:04.964Z,100.00
2023-02-18T09:13:33.490Z,100.00
2023-02-18T09:16:09.503Z,100.00
2023-02-18T09:18:36.813Z,100.00
2023-02-18T09:21:06.099Z,100.00
2023-02-18T09:23:37.168Z,100.00
2023-02-18T09:26:09.332Z,100.00
2023-02-18T09:28:37.236Z,100.00
2023-02-18T09:31:14.324Z,100.00
2023-02-18T09:33:45.816Z,100.00
2023-02-18T09:36:12.948Z,100.00
2023-02-18T09:38:39.772Z,100.00
2023-02-18T09:41:16.011Z,100.00
2023-02-18T09:43:46.611Z,100.00
2023-02-18T09:46:21.358Z,100.00
2023-02-18T09:48:48.730Z,100.00
2023-02-18T09:51:16.462Z,100.00
2023-02-18T09:53:47.471Z,100.00
2023-02-18T09:56:20.059Z,100.00
2023-02-18T09:58:47.994Z,100.00
2023-02-18T10:01:41.015Z,100.00
2023-02-18T10:04:14.659Z,100.00
2023-02-18T10:06:41.528Z,100.00
2023-02-18T10:09:19.926Z,100.00
2023-02-18T10:11:49.852Z,100.00
2023-02-18T10:14:16.806Z,100.00
2023-02-18T10:16:44.231Z,100.00
2023-02-18T10:19:16.823Z,100.00
2023-02-18T10:21:43.920Z,100.00
2023-02-18T10:24:22.932Z,100.00
2023-02-18T10:26:50.160Z,100.00
2023-02-18T10:29:21.841Z,100.00
2023-02-18T10:31:55.822Z,100.00
2023-02-18T10:34:43.536Z,100.00
2023-02-18T10:37:28.918Z,100.00
2023-02-18T10:40:04.768Z,100.00
2023-02-18T10:43:19.171Z,98.74
2023-02-18T10:46:07.530Z,99.32
2023-02-18T10:48:49.416Z,96.39
2023-02-18T10:51:22.812Z,96.31
2023-02-18T10:53:51.441Z,96.71
2023-02-18T10:56:38.574Z,98.74
2023-02-18T10:59:09.905Z,94.25
2023-02-18T11:01:36.784Z,91.42
2023-02-18T11:04:16.676Z,89.49
2023-02-18T11:06:48.972Z,91.65
2023-02-18T11:09:33.842Z,90.38
2023-02-18T11:12:31.975Z,89.15
2023-02-18T11:15:10.119Z,89.40
2023-02-18T11:17:40.228Z,86.93
2023-02-18T11:20:27.032Z,85.38
2023-02-18T11:23:18.007Z,82.92
2023-02-18T11:26:00.782Z,80.19
2023-02-18T11:28:46.992Z,82.85
2023-02-18T11:31:21.948Z,78.12
2023-02-18T11:33:51.554Z,75.79
2023-02-18T11:36:26.005Z,75.46
2023-02-18T11:38:57.537Z,74.31
2023-02-18T11:42:03.743Z,70.95
2023-02-18T11:44:36.288Z,74.62
2023-02-18T11:47:06.607Z,77.58
2023-02-18T11:49:35.018Z,75.39
2023-02-18T11:52:22.564Z,77.98
2023-02-18T11:55:08.424Z,78.53
2023-02-18T11:57:38.385Z,76.65
2023-02-18T12:00:31.720Z,76.06
2023-02-18T12:02:58.750Z,78.77
2023-02-18T12:05:27.388Z,75.68
2023-02-18T12:08:06.105Z,76.27
2023-02-18T12:10:42.647Z,72.51
2023-02-18T12:13:50.924Z,76.90
2023-02-18T12:16:23.529Z,75.00
2023-02-18T12:18:53.479Z,73.89
2023-02-18T12:21:35.480Z,69.60
2023-02-18T12:24:12.088Z,66.88
2023-02-18T12:26:54.807Z,70.58
2023-02-18T12:29:36.577Z,67.73
2023-02-18T12:32:09.462Z,66.13
2023-02-18T12:34:49.400Z,66.92
2023-02-18T12:37:16.179Z,66.07
2023-02-18T12:40:21.259Z,66.43
2023-02-18T12:43:15.196Z,67.00
2023-02-18T12:45:41.864Z,66.73
2023-02-18T12:48:15.757Z,64.21
2023-02-18T12:51:19.736Z,63.58
2023-02-18T12:54:12.571Z,63.42
2023-02-18T12:56:55.179Z,65.91
2023-02-18T12:59:27.851Z,63.63
2023-02-18T13:02:31.241Z,64.50
2023-02-18T13:05:13.117Z,64.04
2023-02-18T13:07:51.821Z,65.40
2023-02-18T13:10:21.427Z,66.00
2023-02-18T13:13:21.685Z,66.03
2023-02-18T13:16:00.397Z,64.68
2023-02-18T13:18:34.597Z,65.74
2023-02-18T13:21:06.022Z,68.55
2023-02-18T13:23:43.800Z,66.13
2023-02-18T13:26:14.117Z,67.12
2023-02-18T13:28:52.163Z,66.29
2023-02-18T13:31:32.123Z,63.83
2023-02-18T13:34:11.150Z,63.33
2023-02-18T13:36:52.793Z,65.30
2023-02-18T13:39:21.726Z,69.90
2023-02-18T13:41:50.828Z,66.33
2023-02-18T13:44:23.618Z,65.53
2023-02-18T13:46:59.073Z,61.50
2023-02-18T13:49:37.658Z,62.41
2023-02-18T13:52:04.828Z,63.20
2023-02-18T13:54:45.121Z,62.86
2023-02-18T13:57:21.579Z,60.13
2023-02-18T13:59:58.379Z,60.18
2023-02-18T14:02:25.370Z,61.31
2023-02-18T14:05:15.794Z,59.51
2023-02-18T14:07:50.971Z,59.47
2023-02-18T14:10:18.377Z,60.49
2023-02-18T14:12:57.215Z,64.98
2023-02-18T14:15:23.936Z,64.09
2023-02-18T14:18:13.147Z,64.45
2023-02-18T14:20:39.769Z,61.38
2023-02-18T14:23:18.712Z,60.30
2023-02-18T14:25:53.742Z,63.92
2023-02-18T14:28:38.494Z,71.34
2023-02-18T14:31:30.916Z,74.22
2023-02-18T14:34:09.903Z,77.46
2023-02-18T14:36:46.653Z,79.29
2023-02-18T14:39:49.896Z,81.55
2023-02-18T14:42:28.864Z,81.11
2023-02-18T14:45:10.038Z,82.94
2023-02-18T14:47:42.706Z,86.09
2023-02-18T14:50:15.716Z,87.14
2023-02-18T14:52:48.779Z,89.75
2023-02-18T14:55:55.038Z,92.73
2023-02-18T14:58:29.832Z,91.56
2023-02-18T15:00:56.799Z,92.38
2023-02-18T15:03:23.900Z,92.49
2023-02-18T15:05:51.510Z,95.94
2023-02-18T15:08:25.673Z,95.95
2023-02-18T15:11:04.342Z,98.70
2023-02-18T15:13:36.741Z,97.25
2023-02-18T15:16:09.317Z,100.00
2023-02-18T15:18:44.468Z,100.00
2023-02-18T15:21:32.069Z,100.00
2023-02-18T15:24:21.388Z,100.00
2023-02-18T15:26:52.209Z,100.00
2023-02-18T15:29:24.662Z,100.00
2023-02-18T15:31:51.577Z,100.00
2023-02-18T15:34:24.404Z,100.00
2023-02-18T15:36:52.666Z,100.00
2023-02-18T15:39:19.383Z,100.00
2023-02-18T15:41:46.514Z,100.00
2023-02-18T15:44:20.822Z,100.00
2023-02-18T15:46:47.709Z,100.00
2023-02-18T15:49:16.397Z,100.00
2023-02-18T15:51:43.831Z,100.00
2023-02-18T15:54:16.882Z,100.00
2023-02-18T15:56:45.884Z,100.00
2023-02-18T15:59:28.499Z,100.00
2023-02-18T16:02:03.587Z,100.00
2023-02-18T16:04:33.794Z,100.00
2023-02-18T16:07:05.702Z,100.00
2023-02-18T16:09:34.016Z,100.00
2023-02-18T16:12:05.821Z,100.00
2023-02-18T16:14:47.345Z,100.00
2023-02-18T16:17:25.374Z,100.00
2023-02-18T16:20:04.760Z,100.00
2023-02-18T16:22:32.336Z,100.00
2023-02-18T16:25:09.191Z,100.00
2023-02-18T16:27:38.058Z,100.00
2023-02-18T16:30:16.583Z,100.00
2023-02-18T16:32:43.834Z,100.00
2023-02-18T16:35:11.713Z,100.00
2023-02-18T16:37:41.602Z,100.00
2023-02-18T16:40:23.152Z,100.00
2023-02-18T16:42:50.327Z,100.00
2023-02-18T16:45:17.523Z,100.00
2023-02-18T16:47:48.956Z,100.00
2023-02-18T16:50:21.412Z,100.00
2023-02-18T16:52:49.389Z,100.00
2023-02-18T16:55:21.645Z,100.00
2023-02-18T16:57:48.514Z,100.00
2023-02-18T17:00:16.937Z,100.00
2023-02-18T17:02:46.522Z,100.00
2023-02-18T17:05:26.949Z,100.00
2023-02-18T17:07:54.988Z,100.00
2023-02-18T17:10:21.747Z,100.00
2023-02-18T17:12:48.736Z,100.00
2023-02-18T17:15:31.795Z,100.00
2023-02-18T17:17:59.918Z,100.00
2023-02-18T17:20:31.576Z,100.00
2023-02-18T17:22:58.703Z,100.00
2023-02-18T17:25:45.724Z,100.00
2023-02-18T17:28:12.535Z,100.00
2023-02-18T17:30:40.868Z,100.00
2023-02-18T17:33:08.626Z,100.00
2023-02-18T17:35:35.424Z,100.00
2023-02-18T17:38:02.279Z,100.00
2023-02-18T17:40:29.477Z,100.00
2023-02-18T17:42:56.768Z,100.00
2023-02-18T17:45:29.907Z,100.00
2023-02-18T17:47:57.334Z,100.00
2023-02-18T17:50:24.517Z,100.00
2023-02-18T17:52:51.166Z,100.00
2023-02-18T17:55:25.131Z,100.00
2023-02-18T17:57:52.344Z,100.00
2023-02-18T18:00:30.825Z,100.00
2023-02-18T18:02:57.671Z,100.00
2023-02-18T18:05:35.812Z,100.00
2023-02-18T18:08:03.815Z,100.00
2023-02-18T18:10:32.813Z,100.00
2023-02-18T18:13:02.020Z,100.00
2023-02-18T18:15:36.865Z,100.00
2023-02-18T18:18:04.163Z,100.00
2023-02-18T18:20:32.092Z,100.00
2023-02-18T18:23:00.480Z,100.00
2023-02-18T18:25:41.303Z,100.00
2023-02-18T18:28:09.166Z,100.00
2023-02-18T18:30:41.502Z,100.00
2023-02-18T18:33:32.325Z,100.00
2023-02-18T18:36:00.058Z,100.00
2023-02-18T18:38:28.288Z,100.00
2023-02-18T18:40:55.676Z,100.00
2023-02-18T18:43:32.759Z,100.00
2023-02-18T18:46:00.450Z,100.00
2023-02-18T18:48:27.591Z,100.00
2023-02-18T18:50:54.827Z,100.00
2023-02-18T18:53:26.702Z,100.00
2023-02-18T18:55:55.722Z,100.00
2023-02-18T18:58:24.621Z,100.00
2023-02-18T19:00:54.308Z,100.00
2023-02-18T19:03:22.768Z,100.00
2023-02-18T19:05:49.898Z,100.00
2023-02-18T19:08:18.089Z,100.00
2023-02-18T19:10:47.073Z,100.00
2023-02-18T19:13:17.562Z,100.00
2023-02-18T19:15:44.809Z,100.00
2023-02-18T19:18:17.558Z,100.00
2023-02-18T19:20:44.613Z,100.00
2023-02-18T19:23:11.403Z,100.00
2023-02-18T19:25:38.854Z,100.00
2023-02-18T19:28:06.050Z,100.00
2023-02-18T19:30:35.533Z,100.00
2023-02-18T19:33:04.100Z,100.00
2023-02-18T19:35:31.663Z,100.00
2023-02-18T19:37:58.647Z,100.00
2023-02-18T19:40:28.598Z,100.00
2023-02-18T19:42:55.540Z,100.00
2023-02-18T19:45:22.745Z,100.00
2023-02-18T19:47:56.999Z,100.00
2023-02-18T19:50:25.149Z,100.00
2023-02-18T19:52:55.680Z,100.00
2023-02-18T19:55:22.741Z,100.00
2023-02-18T19:57:50.689Z,100.00
2023-02-18T20:00:19.049Z,100.00
2023-02-18T20:02:46.139Z,100.00
2023-02-18T20:05:13.660Z,100.00
2023-02-18T20:07:46.252Z,100.00
2023-02-18T20:10:18.016Z,100.00
2023-02-18T20:12:44.620Z,100.00
2023-02-18T20:15:11.466Z,100.00
2023-02-18T20:17:39.461Z,100.00
2023-02-18T20:20:07.537Z,100.00
2023-02-18T20:22:34.467Z,100.00
2023-02-18T20:25:01.198Z,100.00
2023-02-18T20:27:27.914Z,100.00
2023-02-18T20:29:54.528Z,100.00
2023-02-18T20:32:21.291Z,100.00
2023-02-18T20:34:48.149Z,100.00
2023-02-18T20:37:14.890Z,100.00
2023-02-18T20:39:41.749Z,100.00
2023-02-18T20:42:16.251Z,100.00
2023-02-18T20:44:44.132Z,100.00
2023-02-18T20:47:12.896Z,100.00
2023-02-18T20:49:41.110Z,100.00
2023-02-18T20:52:10.861Z,100.00
2023-02-18T20:54:38.346Z,100.00
2023-02-18T20:57:04.974Z,100.00
2023-02-18T20:59:33.441Z,100.00
2023-02-18T21:02:00.971Z,100.00
2023-02-18T21:04:27.772Z,100.00
2023-02-18T21:06:55.398Z,100.00
2023-02-18T21:09:22.313Z,100.00
2023-02-18T21:11:49.258Z,100.00
2023-02-18T21:14:16.162Z,100.00
2023-02-18T21:16:43.048Z,100.00
2023-02-18T21:19:13.804Z,100.00
2023-02-18T21:21:41.100Z,100.00
2023-02-18T21:24:08.100Z,100.00
2023-02-18T21:26:35.136Z,100.00
2023-02-18T21:29:05.286Z,100.00
2023-02-18T21:31:34.963Z,100.00
2023-02-18T21:34:02.773Z,100.00
2023-02-18T21:36:31.386Z,100.00
2023-02-18T21:39:01.406Z,100.00
2023-02-18T21:41:29.064Z,100.00
2023-02-18T21:43:55.709Z,100.00
2023-02-18T21:46:24.945Z,100.00
2023-02-18T21:49:06.047Z,100.00
2023-02-18T21:52:02.285Z,100.00
2023-02-18T21:54:31.581Z,100.00
2023-02-18T21:56:59.401Z,100.00
2023-02-18T21:59:27.941Z,100.00
2023-02-18T22:01:55.133Z,100.00
2023-02-18T22:04:21.962Z,100.00
2023-02-18T22:06:48.620Z,100.00
2023-02-18T22:09:15.231Z,100.00
2023-02-18T22:11:42.879Z,100.00
2023-02-18T22:14:14.029Z,100.00
2023-02-18T22:16:41.211Z,100.00
2023-02-18T22:19:08.838Z,100.00
2023-02-18T22:21:35.630Z,100.00
2023-02-18T22:24:03.786Z,100.00
2023-02-18T22:26:30.359Z,100.00
2023-02-18T22:28:58.598Z,100.00
2023-02-18T22:31:27.538Z,100.00
2023-02-18T22:33:55.168Z,100.00
2023-02-18T22:36:23.662Z,100.00
2023-02-18T22:38:50.753Z,100.00
2023-02-18T22:41:18.966Z,100.00
2023-02-18T22:43:45.906Z,100.00
2023-02-18T22:46:18.146Z,100.00
2023-02-18T22:48:44.808Z,100.00
2023-02-18T22:51:17.696Z,100.00
2023-02-18T22:53:44.682Z,100.00
2023-02-18T22:56:16.521Z,100.00
2023-02-18T22:58:44.130Z,100.00
2023-02-18T23:01:37.965Z,100.00
2023-02-18T23:04:15.290Z,100.00
2023-02-18T23:06:43.763Z,100.00
2023-02-18T23:09:17.031Z,100.00
2023-02-18T23:11:43.852Z,100.00
2023-02-18T23:14:19.798Z,100.00
2023-02-18T23:17:13.398Z,100.00
2023-02-18T23:19:43.679Z,100.00
2023-02-18T23:22:12.122Z,100.00
2023-02-18T23:24:40.909Z,100.00
2023-02-18T23:27:10.252Z,100.00
2023-02-18T23:29:37.324Z,100.00
2023-02-18T23:32:04.817Z,100.00
2023-02-18T23:34:31.563Z,100.00
2023-02-18T23:36:58.521Z,100.00
2023-02-18T23:39:25.955Z,100.00
2023-02-18T23:41:52.883Z,100.00
2023-02-18T23:44:21.526Z,100.00
2023-02-18T23:46:48.346Z,100.00
2023-02-18T23:49:20.107Z,100.00
2023-02-18T23:51:46.782Z,100.00
2023-02-18T23:54:13.390Z,100.00
2023-02-18T23:56:40.516Z,100.00
2023-02-18T23:59:07.243Z,100.00
